Hauptseite
METAR-TAF:

METAR-TAF

Flughäfen :

Hof, Deutschland

Breite: 50-19N, Länge: 011-53E, Höhe: 567 m

Beobachtung

Neuester Wetterbericht von vor 8 Stunden und 6 Minuten, um 17:50 UTC
Wind 4 kt aus West/Nordwest
Temperatur 9°C
Luftfeuchtigkeit 81%
Luftdruck 1018 hPa
Sichtweite 10 km oder mehr
keine Wolken unter 1500 m und keine Kumulonimbus oder Gewitterwolken

METAR: EDQM 191750Z 29004KT CAVOK 09/06 Q1018

Zeit: 03:56 (01:56 UTC)

Prognose

Neuester Wetterbericht von vor 8 Stunden und 56 Minuten, um 17:00 UTC
Gültige Prognose vom 19 um 18 UTC bis 20 um 03 UTC
Wind 4 kt aus Nordwest
Sichtweite 10 km oder mehr
Leicht bewölkt in der Höhe von 3000 ft
Wahrscheinlichkeit 30% :
Zeitweise
vom 20 um 01 UTC bis 20 um 03 UTC
Sichtweite: 1500 m
Nebelschwaden

TAF: EDQM 191700Z 1918/2003 31004KT 9999 FEW030 PROB30 TEMPO 2001/2003 1500 BCFG

Wetterbeobachtungen und Prognosen von mehr als 4000 Flughäfen (METAR und TAF Bericht).

Die verfügbaren Stationen werden durch gelbe und rote Markierungen auf der Karte dargestellt.

Führen Sie die Maus auf sie, um den Namen der Station zu sehen.

Darauf klicken, um die Beobachtung von Wetterbeobachtungen und Prognosen zu sehen.

Um die Karte zu ändern : klicken Sie auf den grünen Tasten mit einem schwarzen Kreuz Zum Vergrößern, auf den grünen Button mit einem Gedankenstrich zu verkleinern, oder auf die grünen Pfeile für benachbarte Karten.


METAR-TAF: